Time;durP1;ratioP1;P1;durP2;ratioP2;P2;SDS_P1;SDS_P2;PMS_P1;PMS_P2;Temp;Humidity;BMP_temperature;BMP_pressure;BME280_temperature;BME280_humidity;BME280_pressure;Samples;Min_cycle;Max_cycle;Signal;HPM_P1;HPM_P2
2021/05/25 00:01:33;;;;;;;4.90;2.70;;;;;;;17.79;60.02;100007.56;1668705;85;21154;-78
2021/05/25 00:04:03;;;;;;;4.53;2.58;;;;;;;17.82;59.86;100003.14;1669244;84;21191;-78
2021/05/25 00:06:30;;;;;;;4.53;2.87;;;;;;;17.86;59.67;100008.88;1662235;84;21066;-80
2021/05/25 00:08:58;;;;;;;5.10;2.60;;;;;;;17.79;60.05;100004.89;1669498;84;21153;-78
2021/05/25 00:11:26;;;;;;;8.53;3.10;;;;;;;17.76;60.16;100006.64;1668218;84;21105;-79
2021/05/25 00:13:53;;;;;;;5.42;2.77;;;;;;;17.71;60.16;100003.26;1669650;84;21634;-81
2021/05/25 00:16:19;;;;;;;5.58;2.80;;;;;;;17.67;60.53;100008.69;1671126;84;21875;-80
2021/05/25 00:18:47;;;;;;;7.30;2.75;;;;;;;17.69;60.51;99993.80;1669521;84;21005;-81
2021/05/25 00:21:14;;;;;;;6.67;2.50;;;;;;;17.70;60.42;99990.92;1668455;84;22512;-80
2021/05/25 00:23:40;;;;;;;7.22;2.92;;;;;;;17.70;60.45;99982.09;1670380;84;21082;-80
2021/05/25 00:26:08;;;;;;;8.00;3.00;;;;;;;17.69;60.60;99987.13;1647486;84;21003;-80
2021/05/25 00:28:34;;;;;;;5.62;2.60;;;;;;;17.63;60.91;99995.96;1669422;84;21168;-79
2021/05/25 00:31:01;;;;;;;4.67;2.98;;;;;;;17.66;60.88;99984.86;1646649;84;21109;-78
2021/05/25 00:33:27;;;;;;;6.47;2.87;;;;;;;17.67;60.88;99991.86;1652904;85;21026;-79
2021/05/25 00:35:55;;;;;;;5.75;2.75;;;;;;;17.65;61.12;99985.87;1647356;85;20942;-79
2021/05/25 00:38:20;;;;;;;5.25;2.65;;;;;;;17.70;60.86;99982.09;1648088;85;21054;-79
2021/05/25 00:40:47;;;;;;;6.90;2.90;;;;;;;17.73;60.84;99980.34;1647919;85;21067;-78
2021/05/25 00:43:17;;;;;;;4.95;2.70;;;;;;;17.74;60.91;99980.64;1645770;85;21128;-79
2021/05/25 00:45:43;;;;;;;6.25;2.90;;;;;;;17.74;60.94;99975.30;1649679;85;21131;-79
2021/05/25 00:48:09;;;;;;;7.15;2.95;;;;;;;17.69;61.14;99973.25;1650832;85;21106;-81
2021/05/25 00:50:36;;;;;;;8.20;3.00;;;;;;;17.70;61.15;99978.91;1648045;85;20960;-80
2021/05/25 00:53:04;;;;;;;5.47;2.65;;;;;;;17.70;61.16;99983.44;1633689;86;21215;-79
2021/05/25 00:55:36;;;;;;;6.30;3.00;;;;;;;17.69;61.09;99973.77;1647013;85;21101;-78
2021/05/25 00:58:04;;;;;;;5.05;2.60;;;;;;;17.70;61.21;99967.41;1648087;85;21126;-79
2021/05/25 01:00:46;;;;;;;4.30;2.70;;;;;;;17.74;61.18;99968.62;1647623;85;21191;-78
2021/05/25 01:03:14;;;;;;;6.00;2.90;;;;;;;17.70;61.43;99968.22;1648690;85;21178;-79
2021/05/25 01:05:42;;;;;;;8.50;3.10;;;;;;;17.71;61.29;99971.21;1648236;85;21139;-77
2021/05/25 01:08:08;;;;;;;6.90;3.00;;;;;;;17.71;61.42;99959.69;1646299;85;21658;-78
2021/05/25 01:10:39;;;;;;;6.53;3.15;;;;;;;17.71;61.40;99961.02;1646722;85;20975;-79
2021/05/25 01:13:10;;;;;;;7.37;3.30;;;;;;;17.68;61.48;99962.77;1647930;85;21067;-77
2021/05/25 01:15:36;;;;;;;6.28;3.17;;;;;;;17.73;61.40;99962.47;1647499;85;21098;-77
2021/05/25 01:18:01;;;;;;;6.17;2.90;;;;;;;17.75;61.45;99965.73;1648778;85;21185;-78
2021/05/25 01:20:30;;;;;;;5.37;3.08;;;;;;;17.72;61.80;99962.67;1631919;86;20921;-78
2021/05/25 01:22:58;;;;;;;6.85;2.90;;;;;;;17.69;62.13;99968.43;1648034;85;21078;-78
2021/05/25 01:25:24;;;;;;;6.35;3.08;;;;;;;17.70;62.29;99972.75;1648093;86;21603;-78
2021/05/25 01:27:57;;;;;;;9.30;3.40;;;;;;;17.65;63.08;99968.03;1646734;85;21095;-77
2021/05/25 01:30:27;;;;;;;4.50;3.10;;;;;;;17.67;63.12;99965.16;1647595;85;21683;-77
2021/05/25 01:32:53;;;;;;;7.90;3.08;;;;;;;17.65;64.18;99956.51;1647183;85;21088;-78
2021/05/25 01:35:19;;;;;;;7.17;3.10;;;;;;;17.69;64.29;99948.40;1647849;85;21106;-78
2021/05/25 01:37:49;;;;;;;5.05;2.87;;;;;;;17.71;64.71;99942.33;1648491;85;21721;-78
2021/05/25 01:40:17;;;;;;;7.50;3.12;;;;;;;17.76;64.86;99935.86;1647019;85;21108;-80
2021/05/25 01:42:44;;;;;;;6.15;3.12;;;;;;;17.79;64.83;99919.42;1648747;85;21127;-79
2021/05/25 01:45:16;;;;;;;6.70;3.00;;;;;;;17.75;65.03;99904.31;1647486;85;22110;-79
2021/05/25 01:47:41;;;;;;;6.00;3.00;;;;;;;17.70;64.89;99895.30;1647487;85;21038;-79
2021/05/25 01:50:12;;;;;;;6.83;3.00;;;;;;;17.67;64.92;99882.38;1634212;86;20993;-80
2021/05/25 01:53:04;;;;;;;8.03;3.12;;;;;;;17.58;65.31;99874.56;1634844;86;21626;-80
2021/05/25 01:55:46;;;;;;;7.42;3.20;;;;;;;17.55;65.33;99874.98;1649224;85;21152;-79
2021/05/25 01:58:25;;;;;;;5.22;3.00;;;;;;;17.54;65.31;99888.53;1650943;85;21635;-79
2021/05/25 02:00:55;;;;;;;5.92;3.02;;;;;;;17.49;65.97;99878.48;1647508;85;21091;-79
2021/05/25 02:03:23;;;;;;;5.03;2.90;;;;;;;17.48;66.45;99871.52;1648481;85;21090;-79
2021/05/25 02:05:49;;;;;;;7.30;3.02;;;;;;;17.35;67.78;99863.52;1648095;85;21706;-80
2021/05/25 02:08:16;;;;;;;7.33;3.10;;;;;;;17.38;67.65;99869.25;1648463;85;21097;-80
2021/05/25 02:10:47;;;;;;;6.62;3.10;;;;;;;17.20;68.65;99882.44;1648366;85;21078;-80
2021/05/25 02:13:25;;;;;;;7.75;3.10;;;;;;;17.30;68.39;99895.36;1645634;85;21098;-79
2021/05/25 02:15:57;;;;;;;4.60;2.77;;;;;;;17.21;68.99;99898.25;1647696;85;21067;-79
2021/05/25 02:18:26;;;;;;;7.87;3.00;;;;;;;17.13;70.24;99918.97;1648324;86;21556;-80
2021/05/25 02:20:55;;;;;;;8.05;3.12;;;;;;;17.13;70.24;99911.78;1630272;85;22631;-79
2021/05/25 02:23:21;;;;;;;6.72;3.10;;;;;;;17.11;70.38;99924.51;1648501;85;21616;-79
2021/05/25 02:25:47;;;;;;;5.55;2.87;;;;;;;16.89;72.54;99933.70;1648159;85;21011;-78
2021/05/25 02:28:13;;;;;;;4.22;2.90;;;;;;;16.84;73.15;99921.79;1634911;85;21043;-79
2021/05/25 02:30:39;;;;;;;4.75;3.02;;;;;;;16.83;73.83;99930.80;1649753;84;20944;-79
2021/05/25 02:33:12;;;;;;;6.25;3.05;;;;;;;16.79;74.06;99942.89;1648228;85;21066;-79
2021/05/25 02:35:38;;;;;;;7.08;3.00;;;;;;;16.86;73.55;99934.44;1623145;86;21118;-79
2021/05/25 02:38:06;;;;;;;6.12;3.10;;;;;;;16.89;73.66;99919.04;1648973;85;21078;-79
2021/05/25 02:40:34;;;;;;;8.23;3.20;;;;;;;16.96;73.68;99915.88;1644639;85;21667;-78
2021/05/25 02:43:00;;;;;;;5.47;2.95;;;;;;;16.80;75.69;99897.88;1648730;85;21058;-78
2021/05/25 02:45:26;;;;;;;5.87;2.83;;;;;;;16.71;76.00;99891.09;1629648;86;22680;-79
2021/05/25 02:47:51;;;;;;;5.62;3.10;;;;;;;16.71;76.29;99884.95;1650001;85;21042;-79
2021/05/25 02:50:21;;;;;;;5.97;3.15;;;;;;;16.65;76.81;99878.57;1651616;85;21168;-79
2021/05/25 02:52:49;;;;;;;5.40;3.02;;;;;;;16.73;76.52;99878.89;1647017;85;21032;-79
2021/05/25 02:55:17;;;;;;;8.00;3.30;;;;;;;16.74;77.01;99881.36;1647217;85;21438;-78
2021/05/25 02:57:45;;;;;;;5.83;3.40;;;;;;;16.65;78.05;99878.57;1648149;86;21062;-78
2021/05/25 03:00:15;;;;;;;8.38;3.50;;;;;;;16.70;77.21;99882.77;1648075;85;21684;-80
2021/05/25 03:02:41;;;;;;;5.65;3.17;;;;;;;16.69;77.31;99877.96;1647050;85;21640;-78
2021/05/25 03:05:10;;;;;;;6.75;3.22;;;;;;;16.67;78.05;99864.52;1647654;85;20926;-78
2021/05/25 03:07:36;;;;;;;7.83;3.17;;;;;;;16.62;78.39;99853.64;1646495;86;21603;-78
2021/05/25 03:10:05;;;;;;;5.22;3.15;;;;;;;16.60;78.93;99845.85;1648034;85;21195;-80
2021/05/25 03:12:33;;;;;;;5.30;3.20;;;;;;;16.54;79.77;99838.66;1643401;86;21055;-79
2021/05/25 03:14:59;;;;;;;6.40;3.20;;;;;;;16.60;79.72;99838.38;1648985;85;21011;-79
2021/05/25 03:17:25;;;;;;;7.55;3.00;;;;;;;16.64;80.07;99824.93;1647928;86;20972;-79
2021/05/25 03:19:51;;;;;;;4.58;2.92;;;;;;;16.69;79.96;99830.49;1646564;85;21097;-78
2021/05/25 03:22:19;;;;;;;6.37;3.22;;;;;;;16.69;80.06;99833.97;1643583;85;21890;-79
2021/05/25 03:24:45;;;;;;;5.22;3.00;;;;;;;16.76;79.36;99828.63;1646953;85;21064;-78
2021/05/25 03:27:16;;;;;;;6.58;3.10;;;;;;;16.77;79.06;99836.14;1646958;85;20999;-81
2021/05/25 03:29:42;;;;;;;6.30;3.45;;;;;;;16.75;79.24;99827.01;1646656;85;21159;-79
2021/05/25 03:32:09;;;;;;;8.53;3.20;;;;;;;16.72;79.12;99826.58;1649620;85;20954;-78
2021/05/25 03:34:38;;;;;;;5.42;3.02;;;;;;;16.71;79.07;99828.95;1665910;84;21156;-79
2021/05/25 03:37:05;;;;;;;8.35;2.90;;;;;;;16.71;79.11;99824.44;1657818;84;21623;-79
2021/05/25 03:39:34;;;;;;;7.10;3.15;;;;;;;16.67;79.73;99821.36;1666485;85;21614;-78
2021/05/25 03:42:02;;;;;;;5.17;3.02;;;;;;;16.67;79.73;99827.19;1668395;84;21079;-78
2021/05/25 03:44:31;;;;;;;5.65;3.20;;;;;;;16.67;79.66;99827.19;1667827;84;21112;-79
2021/05/25 03:46:57;;;;;;;5.78;3.10;;;;;;;16.67;79.84;99825.86;1658183;84;21186;-79
2021/05/25 03:49:24;;;;;;;7.90;3.20;;;;;;;16.65;79.85;99827.91;1671613;84;20934;-78
2021/05/25 03:51:52;;;;;;;4.80;3.17;;;;;;;16.61;80.37;99826.67;1667456;84;22115;-78
2021/05/25 03:54:22;;;;;;;6.72;3.70;;;;;;;16.60;80.15;99827.72;1670221;84;21121;-78
2021/05/25 03:56:56;;;;;;;5.50;3.10;;;;;;;16.59;80.72;99827.39;1655204;84;21821;-78
2021/05/25 03:59:20;;;;;;;5.95;2.92;;;;;;;16.60;80.56;99822.38;1661020;84;21128;-81
2021/05/25 04:01:47;;;;;;;8.50;3.00;;;;;;;16.63;80.49;99816.64;1668925;84;20978;-80
2021/05/25 04:04:14;;;;;;;6.03;2.92;;;;;;;16.59;80.99;99811.40;1669676;84;21107;-79
2021/05/25 04:06:41;;;;;;;6.45;3.30;;;;;;;16.47;81.40;99812.02;1670643;84;21046;-79
2021/05/25 04:09:09;;;;;;;5.17;3.12;;;;;;;16.45;81.73;99799.41;1669367;84;21169;-80
2021/05/25 04:11:38;;;;;;;7.35;3.50;;;;;;;16.41;82.23;99799.50;1670413;84;21956;-79
2021/05/25 04:14:07;;;;;;;6.12;3.17;;;;;;;16.40;82.02;99800.51;1669502;84;21647;-79
2021/05/25 04:16:33;;;;;;;5.60;3.35;;;;;;;16.31;82.67;99807.05;1670084;84;21081;-80
2021/05/25 04:18:59;;;;;;;5.85;3.42;;;;;;;16.31;82.71;99801.72;1670224;84;20994;-80
2021/05/25 04:21:27;;;;;;;6.25;3.52;;;;;;;16.34;83.16;99803.98;1621018;85;20919;-80
2021/05/25 04:23:53;;;;;;;5.55;3.35;;;;;;;16.39;82.83;99810.88;1670269;85;22074;-79
2021/05/25 04:26:21;;;;;;;7.10;4.05;;;;;;;16.44;82.64;99804.42;1670364;84;20957;-80
2021/05/25 04:28:50;;;;;;;;;;;;;;;16.47;82.60;99801.35;1672582;84;21100;-81
2021/05/25 04:31:22;;;;;;;5.95;3.30;;;;;;;16.51;82.42;99805.75;1667613;85;20233;-80
2021/05/25 04:33:55;;;;;;;5.25;3.40;;;;;;;16.47;82.71;99807.20;1667254;84;21100;-80
2021/05/25 04:36:20;;;;;;;6.65;3.58;;;;;;;16.39;83.07;99797.55;1670328;84;21196;-80
2021/05/25 04:38:47;;;;;;;7.87;3.40;;;;;;;16.37;83.26;99789.45;1669142;84;20910;-80
2021/05/25 04:41:17;;;;;;;6.60;3.50;;;;;;;16.42;83.44;99782.49;1640806;85;22093;-80
2021/05/25 04:43:43;;;;;;;8.80;3.45;;;;;;;16.38;83.07;99786.58;1670430;84;21017;-79
2021/05/25 04:46:08;;;;;;;6.28;3.37;;;;;;;16.35;83.77;99789.65;1669044;84;20943;-79
2021/05/25 04:48:38;;;;;;;5.85;3.25;;;;;;;16.39;83.63;99784.72;1670324;84;20968;-82
2021/05/25 04:51:05;;;;;;;8.25;3.20;;;;;;;16.40;82.95;99780.52;1669255;84;21085;-80
2021/05/25 04:53:33;;;;;;;4.65;2.83;;;;;;;16.38;83.35;99791.91;1628262;85;21132;-80
2021/05/25 04:56:04;;;;;;;6.15;2.90;;;;;;;16.42;83.28;99788.31;1671506;84;21080;-79
2021/05/25 04:58:34;;;;;;;5.00;3.00;;;;;;;16.42;83.61;99782.49;1647487;85;21157;-78
2021/05/25 05:00:59;;;;;;;6.22;2.92;;;;;;;16.47;83.49;99784.55;1670847;84;21141;-80
2021/05/25 05:03:28;;;;;;;6.17;2.80;;;;;;;16.55;82.65;99791.53;1674550;84;21042;-81
2021/05/25 05:05:56;;;;;;;5.05;2.67;;;;;;;16.45;83.03;99787.91;1668580;84;21725;-79
2021/05/25 05:08:22;;;;;;;5.80;3.10;;;;;;;16.37;83.16;99799.58;1671598;84;21060;-79
2021/05/25 05:10:51;;;;;;;5.08;2.90;;;;;;;16.29;83.07;99797.12;1669181;85;20953;-80
2021/05/25 05:13:18;;;;;;;5.45;2.95;;;;;;;16.40;82.62;99809.03;1670404;84;21060;-79
2021/05/25 05:15:44;;;;;;;5.97;2.70;;;;;;;16.15;83.48;99808.25;1668204;84;21348;-80
2021/05/25 05:18:13;;;;;;;5.10;2.70;;;;;;;16.15;83.98;99806.41;1667209;84;20959;-84
2021/05/25 05:20:40;;;;;;;6.08;2.90;;;;;;;16.27;83.34;99815.16;1668094;84;20998;-78
2021/05/25 05:23:07;;;;;;;6.97;3.30;;;;;;;16.26;83.26;99816.98;1668427;84;21147;-78
2021/05/25 05:25:35;;;;;;;4.25;2.72;;;;;;;16.28;83.37;99826.11;1665313;84;21229;-78
2021/05/25 05:28:01;;;;;;;5.30;2.83;;;;;;;16.20;83.94;99826.30;1668379;84;21035;-80
2021/05/25 05:30:28;;;;;;;7.67;2.95;;;;;;;16.27;83.45;99825.30;1640956;84;20954;-77
2021/05/25 05:32:53;;;;;;;8.20;3.15;;;;;;;16.13;84.64;99817.78;1669015;84;21180;-78
2021/05/25 05:35:20;;;;;;;5.35;3.05;;;;;;;16.14;85.02;99820.77;1652863;85;20984;-82
2021/05/25 05:37:48;;;;;;;6.20;3.10;;;;;;;16.09;84.80;99812.53;1669821;85;21217;-78
2021/05/25 05:40:15;;;;;;;;;;;;;;;16.08;85.12;99816.23;1672434;84;21146;-76
2021/05/25 05:42:40;;;;;;;5.67;2.80;;;;;;;16.08;85.28;99813.58;1670087;84;20249;-78
2021/05/25 05:45:08;;;;;;;5.78;2.80;;;;;;;16.00;85.50;99812.92;1670999;84;20999;-80
2021/05/25 05:47:39;;;;;;;5.47;3.08;;;;;;;15.89;86.77;99815.12;1673603;84;21788;-78
2021/05/25 05:50:10;;;;;;;5.30;3.00;;;;;;;15.81;87.10;99814.50;1671876;85;21221;-80
2021/05/25 05:52:35;;;;;;;7.42;2.92;;;;;;;15.94;86.78;99818.52;1653486;84;20994;-82
2021/05/25 05:55:05;;;;;;;5.30;2.83;;;;;;;15.97;86.92;99818.13;1672562;84;27060;-83
2021/05/25 05:57:31;;;;;;;6.45;3.40;;;;;;;15.99;86.61;99814.77;1650510;84;21135;-77
2021/05/25 05:59:58;;;;;;;5.03;2.80;;;;;;;16.00;86.70;99810.26;1670191;83;21024;-79
2021/05/25 06:02:29;;;;;;;5.67;2.98;;;;;;;16.03;86.88;99814.66;1673163;84;21112;-78
2021/05/25 06:04:55;;;;;;;5.85;2.83;;;;;;;15.99;87.40;99810.78;1673654;84;22405;-77
2021/05/25 06:07:21;;;;;;;7.10;2.83;;;;;;;15.98;87.72;99805.13;1675583;84;21037;-79
2021/05/25 06:09:47;;;;;;;5.17;2.80;;;;;;;16.11;86.90;99803.85;1672744;84;21164;-76
2021/05/25 06:12:13;;;;;;;5.62;2.77;;;;;;;16.27;86.72;99803.17;1671387;84;21014;-76
2021/05/25 06:14:41;;;;;;;5.90;2.70;;;;;;;16.18;86.85;99799.86;1652889;85;21016;-76
2021/05/25 06:17:08;;;;;;;5.35;2.70;;;;;;;16.14;87.35;99796.79;1652803;84;21084;-78
2021/05/25 06:19:34;;;;;;;6.45;2.60;;;;;;;16.22;86.70;99786.95;1670800;84;21018;-77
2021/05/25 06:22:02;;;;;;;3.92;2.70;;;;;;;16.23;86.87;99783.27;1671964;84;20974;-76
2021/05/25 06:24:27;;;;;;;4.87;2.80;;;;;;;16.29;86.60;99783.27;1671580;84;21062;-78
2021/05/25 06:26:53;;;;;;;3.77;2.60;;;;;;;16.12;87.48;99784.16;1672213;85;21176;-77
2021/05/25 06:29:21;;;;;;;5.75;2.55;;;;;;;16.13;87.70;99787.14;1671194;84;20997;-77
2021/05/25 06:31:48;;;;;;;;;;;;;;;16.20;87.00;99794.33;1674566;85;20989;-77
2021/05/25 06:34:17;;;;;;;4.08;2.60;;;;;;;16.18;87.25;99787.87;1671061;84;20274;-77
2021/05/25 06:36:45;;;;;;;4.67;2.40;;;;;;;16.14;87.65;99796.79;1667805;84;21112;-77
2021/05/25 06:39:13;;;;;;;7.03;2.95;;;;;;;16.14;87.62;99800.78;1668562;84;21898;-77
2021/05/25 06:41:42;;;;;;;5.83;2.90;;;;;;;16.08;88.84;99799.41;1669729;85;21082;-78
2021/05/25 06:44:08;;;;;;;4.50;2.83;;;;;;;16.17;88.77;99800.06;1669014;85;21155;-77
2021/05/25 06:46:35;;;;;;;5.05;2.80;;;;;;;16.19;89.18;99806.00;1669095;85;20974;-77
2021/05/25 06:49:05;;;;;;;6.10;2.70;;;;;;;16.26;89.05;99802.85;1669004;84;21147;-76
2021/05/25 06:51:34;;;;;;;4.50;2.70;;;;;;;16.27;89.16;99793.84;1668969;85;21177;-77
2021/05/25 06:54:04;;;;;;;4.92;2.80;;;;;;;16.41;88.62;99793.36;1669024;84;21041;-78
2021/05/25 06:56:34;;;;;;;4.05;2.87;;;;;;;16.48;88.09;99789.67;1671336;84;21090;-80
2021/05/25 06:59:02;;;;;;;6.10;2.85;;;;;;;16.46;88.06;99786.38;1668906;84;21123;-80
2021/05/25 07:01:30;;;;;;;4.65;2.87;;;;;;;16.52;88.14;99784.75;1670088;85;21109;-80
2021/05/25 07:04:00;;;;;;;4.22;2.62;;;;;;;16.64;87.89;99780.94;1668719;84;21124;-81
2021/05/25 07:06:28;;;;;;;5.10;2.65;;;;;;;16.63;87.69;99777.98;1671088;84;21176;-79
2021/05/25 07:08:53;;;;;;;4.87;2.55;;;;;;;16.61;87.38;99782.69;1669820;84;20990;-82
2021/05/25 07:11:20;;;;;;;6.08;2.95;;;;;;;16.72;86.93;99784.75;1670783;84;21062;-83
2021/05/25 07:13:47;;;;;;;4.20;2.55;;;;;;;16.77;86.62;99786.28;1667584;85;21121;-81
2021/05/25 07:16:15;;;;;;;;;;;;;;;16.90;86.29;99786.00;1672601;84;21097;-81
2021/05/25 07:18:42;;;;;;;4.37;2.70;;;;;;;16.90;86.66;99782.00;1648390;85;20213;-78
2021/05/25 07:21:08;;;;;;;5.70;2.50;;;;;;;16.96;86.17;99790.51;1670852;84;21005;-78
2021/05/25 07:23:36;;;;;;;7.00;2.70;;;;;;;16.86;86.10;99777.60;1669363;84;21112;-79
2021/05/25 07:26:07;;;;;;;4.03;2.50;;;;;;;16.85;86.23;99782.59;1668357;84;21109;-82
2021/05/25 07:28:38;;;;;;;6.22;2.70;;;;;;;16.92;85.87;99784.78;1669314;84;21031;-82
2021/05/25 07:31:04;;;;;;;3.77;2.52;;;;;;;16.98;86.34;99779.11;1671301;84;21025;-84
2021/05/25 07:33:30;;;;;;;4.67;2.60;;;;;;;17.18;85.67;99781.25;1669224;85;21638;-82
2021/05/25 07:36:02;;;;;;;5.42;2.77;;;;;;;17.17;85.70;99771.59;1586567;85;20958;-80
2021/05/25 07:38:29;;;;;;;7.30;2.77;;;;;;;17.20;86.39;99772.52;1656638;85;21165;-84
2021/05/25 07:40:59;;;;;;;5.53;2.47;;;;;;;17.32;85.33;99774.53;1640180;85;25162;-84
2021/05/25 07:43:26;;;;;;;5.28;2.70;;;;;;;17.26;84.93;99774.03;1655484;85;21626;-82
2021/05/25 07:45:53;;;;;;;4.92;2.70;;;;;;;17.19;84.83;99770.87;1656592;85;21113;-81
2021/05/25 07:48:23;;;;;;;5.25;2.40;;;;;;;17.25;84.21;99776.42;1655959;85;21151;-80
2021/05/25 07:50:55;;;;;;;4.03;2.52;;;;;;;17.26;84.89;99774.03;1657649;83;21026;-85
2021/05/25 07:53:28;;;;;;;5.95;2.80;;;;;;;17.32;84.74;99774.01;1655626;85;21052;-84
2021/05/25 07:55:56;;;;;;;6.80;2.60;;;;;;;17.31;85.01;99764.37;1655211;85;21050;-81
2021/05/25 07:58:24;;;;;;;;;;;;;;;17.32;84.36;99754.52;1660326;85;21071;-80
2021/05/25 08:00:53;;;;;;;3.72;2.40;;;;;;;17.10;83.46;99757.44;1658735;85;20277;-82
2021/05/25 08:03:20;;;;;;;6.85;2.42;;;;;;;17.27;83.76;99759.67;1659580;85;21196;-81
2021/05/25 08:05:47;;;;;;;4.90;2.57;;;;;;;17.37;83.92;99760.03;1659610;84;21735;-82
2021/05/25 08:08:15;;;;;;;4.83;2.45;;;;;;;17.57;83.74;99762.14;1658922;84;21082;-84
2021/05/25 08:10:46;;;;;;;6.55;2.47;;;;;;;17.53;83.51;99759.58;1659065;84;21169;-85
2021/05/25 08:13:12;;;;;;;8.00;2.80;;;;;;;17.52;83.41;99752.59;1623947;86;21065;-82
2021/05/25 08:15:40;;;;;;;7.22;2.70;;;;;;;17.68;83.27;99750.47;1656359;85;20998;-84
2021/05/25 08:20:44;;;;;;;7.55;2.50;;;;;;;17.58;81.47;99756.27;1656812;85;22726;-82
2021/05/25 08:23:15;;;;;;;7.30;2.90;;;;;;;17.52;82.40;99752.59;1657679;85;21006;-85
2021/05/25 08:25:45;;;;;;;7.72;2.83;;;;;;;17.72;82.59;99752.50;1634508;85;21161;-84
2021/05/25 08:28:12;;;;;;;3.75;2.35;;;;;;;17.61;81.80;99755.04;1655011;85;21738;-81
2021/05/25 08:30:40;;;;;;;6.67;2.65;;;;;;;17.82;81.04;99760.08;1620792;85;21127;-86
2021/05/25 08:33:10;;;;;;;6.03;2.40;;;;;;;17.72;81.75;99758.37;1655674;85;21067;-84
2021/05/25 08:35:37;;;;;;;3.80;2.42;;;;;;;17.76;81.26;99755.59;1650066;85;20935;-85
2021/05/25 08:38:09;;;;;;;5.28;2.20;;;;;;;17.67;80.58;99756.86;1653133;85;21047;-83
2021/05/25 08:40:37;;;;;;;5.30;2.40;;;;;;;17.52;80.14;99755.25;1646638;85;22460;-77
2021/05/25 08:43:12;;;;;;;3.83;2.05;;;;;;;17.61;80.16;99760.38;1647414;85;21329;-80
2021/05/25 08:45:42;;;;;;;4.62;2.20;;;;;;;17.54;80.44;99770.56;1632470;86;21055;-79
2021/05/25 08:48:08;;;;;;;5.37;2.45;;;;;;;17.56;81.04;99763.68;1643822;85;21844;-76
2021/05/25 08:50:34;;;;;;;4.95;2.50;;;;;;;17.61;81.18;99764.38;1648689;85;21050;-77
2021/05/25 08:53:04;;;;;;;6.75;2.85;;;;;;;17.65;80.75;99774.92;1648973;85;20943;-80
2021/05/25 08:55:34;;;;;;;6.22;2.70;;;;;;;17.58;81.23;99762.42;1647686;85;21298;-82
2021/05/25 08:58:04;;;;;;;7.60;2.60;;;;;;;17.58;81.08;99766.95;1636342;86;21097;-76
2021/05/25 09:00:31;;;;;;;5.40;2.27;;;;;;;17.59;81.63;99761.92;1646921;85;21654;-79
2021/05/25 09:03:02;;;;;;;5.30;2.30;;;;;;;17.57;81.29;99766.14;1648967;85;21039;-76
2021/05/25 09:05:27;;;;;;;4.60;2.65;;;;;;;17.46;80.69;99759.30;1646834;85;21635;-80
2021/05/25 09:07:58;;;;;;;5.95;2.60;;;;;;;17.46;81.13;99772.12;1645645;85;21147;-79
2021/05/25 09:13:06;;;;;;;4.03;2.30;;;;;;;17.27;80.84;99770.34;1647204;85;21151;-80
2021/05/25 09:15:38;;;;;;;4.90;2.70;;;;;;;17.24;80.91;99776.91;1647497;85;21671;-77
2021/05/25 09:18:25;;;;;;;4.67;2.22;;;;;;;17.13;81.06;99779.70;1644509;85;21109;-75
2021/05/25 09:21:01;;;;;;;4.60;2.40;;;;;;;17.16;81.15;99774.47;1646388;85;39181;-76
2021/05/25 09:23:38;;;;;;;6.03;2.30;;;;;;;17.01;80.70;99774.69;1648303;85;21045;-75
2021/05/25 09:26:11;;;;;;;3.72;2.30;;;;;;;17.21;80.62;99780.84;1648277;85;21091;-77
2021/05/25 09:28:58;;;;;;;5.03;2.00;;;;;;;17.29;80.25;99779.80;1646476;85;21181;-81
2021/05/25 09:31:47;;;;;;;5.55;2.42;;;;;;;17.29;79.34;99775.79;1632328;86;21175;-78
2021/05/25 09:34:24;;;;;;;4.60;2.42;;;;;;;17.32;79.37;99787.87;1645868;85;21093;-81
2021/05/25 09:37:03;;;;;;;4.58;2.77;;;;;;;17.07;79.51;99789.88;1625116;85;21050;-80
2021/05/25 09:39:44;;;;;;;6.85;2.90;;;;;;;16.86;79.88;99792.27;1653077;85;21019;-80
2021/05/25 09:42:12;;;;;;;7.50;3.12;;;;;;;16.85;80.40;99790.06;1653386;85;21109;-80
2021/05/25 09:44:39;;;;;;;6.80;3.27;;;;;;;16.97;79.57;99792.97;1654893;85;20987;-81
2021/05/25 09:47:05;;;;;;;5.28;3.40;;;;;;;17.01;79.07;99792.03;1626129;86;21194;-79
2021/05/25 09:49:32;;;;;;;9.50;3.58;;;;;;;17.05;78.54;99790.08;1652984;84;20940;-79
2021/05/25 09:52:07;;;;;;;5.53;3.55;;;;;;;17.13;78.78;99793.56;1653636;85;21106;-79
2021/05/25 09:54:35;;;;;;;4.85;3.33;;;;;;;17.15;78.54;99788.34;1652794;85;21133;-81
2021/05/25 09:57:06;;;;;;;8.60;3.40;;;;;;;17.23;78.50;99786.77;1652604;84;21138;-80
2021/05/25 09:59:40;;;;;;;7.12;3.30;;;;;;;17.44;78.14;99781.38;1647994;84;21987;-80
2021/05/25 10:02:22;;;;;;;5.05;3.30;;;;;;;17.44;77.26;99787.53;1652885;84;21071;-79
2021/05/25 10:05:05;;;;;;;7.60;3.60;;;;;;;17.26;77.66;99794.05;1653220;85;21022;-78
2021/05/25 10:07:36;;;;;;;6.10;3.50;;;;;;;17.59;77.51;99791.30;1657137;85;20979;-79
2021/05/25 10:10:05;;;;;;;6.60;3.80;;;;;;;17.75;77.08;99799.34;1653118;85;21084;-78
2021/05/25 10:12:31;;;;;;;6.25;4.17;;;;;;;17.78;76.14;99800.25;1652337;84;21947;-77
2021/05/25 10:14:57;;;;;;;9.08;4.30;;;;;;;17.73;76.55;99797.41;1658088;84;20927;-85
2021/05/25 10:20:06;;;;;;;6.10;4.45;;;;;;;17.88;75.38;99797.12;1654229;85;21007;-79
2021/05/25 10:22:32;;;;;;;5.75;4.42;;;;;;;17.92;75.56;99794.37;1651396;85;22197;-79
2021/05/25 10:24:57;;;;;;;6.87;4.55;;;;;;;18.13;74.74;99789.20;1633310;85;22203;-79
2021/05/25 10:27:28;;;;;;;6.85;4.47;;;;;;;18.12;74.71;99779.56;1655143;85;21295;-81
2021/05/25 10:29:54;;;;;;;7.12;5.20;;;;;;;18.47;75.29;99779.95;1654296;85;21698;-79
2021/05/25 10:32:23;;;;;;;9.10;4.80;;;;;;;18.29;71.40;99794.05;1652297;85;21122;-80
2021/05/25 10:34:52;;;;;;;7.33;4.70;;;;;;;18.41;71.32;99774.13;1653834;85;21888;-83
2021/05/25 10:37:19;;;;;;;5.37;4.08;;;;;;;18.58;71.35;99785.61;1620969;85;21619;-80
2021/05/25 10:39:56;;;;;;;7.80;4.80;;;;;;;18.71;70.29;99783.38;1655883;85;21135;-85
2021/05/25 10:42:32;;;;;;;7.72;4.30;;;;;;;18.83;70.22;99781.59;1655465;85;21133;-84
2021/05/25 10:45:16;;;;;;;6.42;3.83;;;;;;;18.89;68.85;99786.09;1655296;85;21133;-83
2021/05/25 10:48:06;;;;;;;7.87;3.80;;;;;;;19.05;69.41;99780.72;1654997;85;21114;-83
2021/05/25 10:50:36;;;;;;;6.15;3.70;;;;;;;19.00;68.98;99785.89;1656639;84;21382;-84
2021/05/25 10:53:09;;;;;;;6.03;3.30;;;;;;;19.05;67.64;99789.25;1655512;85;21051;-82
2021/05/25 10:55:42;;;;;;;5.40;4.00;;;;;;;19.15;67.70;99776.19;1658593;85;21039;-83
2021/05/25 10:58:30;;;;;;;4.67;3.62;;;;;;;19.17;68.59;99779.45;1656244;85;21665;-82
2021/05/25 11:01:02;;;;;;;5.45;3.50;;;;;;;19.16;67.36;99777.83;1655151;85;21074;-84
2021/05/25 11:03:28;;;;;;;7.58;3.67;;;;;;;19.41;67.39;99782.31;1655746;84;21637;-83
2021/05/25 11:06:06;;;;;;;7.85;3.52;;;;;;;19.41;66.29;99779.63;1664715;84;21038;-81
2021/05/25 11:08:41;;;;;;;8.30;4.08;;;;;;;19.50;66.71;99774.27;1657388;85;21107;-83
2021/05/25 11:11:15;;;;;;;5.65;3.40;;;;;;;19.57;67.26;99773.66;1654532;85;21071;-82
2021/05/25 11:13:52;;;;;;;5.37;3.40;;;;;;;19.70;66.52;99765.47;1656775;85;21046;-84
2021/05/25 11:16:36;;;;;;;7.45;3.83;;;;;;;19.84;66.05;99776.02;1655812;85;20995;-82
2021/05/25 11:19:18;;;;;;;5.95;3.37;;;;;;;19.83;66.57;99772.53;1652744;85;21050;-84
2021/05/25 11:24:43;;;;;;;6.90;3.55;;;;;;;20.11;65.60;99760.94;1636677;86;20265;-84
2021/05/25 11:27:29;;;;;;;5.45;3.10;;;;;;;20.14;64.81;99763.16;1654737;85;21053;-84
2021/05/25 11:30:23;;;;;;;4.80;3.00;;;;;;;20.19;63.56;99761.94;1655354;86;21154;-84
2021/05/25 11:32:56;;;;;;;6.20;2.80;;;;;;;20.27;63.38;99761.61;1657581;85;21587;-84
2021/05/25 11:35:25;;;;;;;4.08;2.65;;;;;;;20.50;62.80;99763.52;1658542;85;21967;-84
2021/05/25 11:37:54;;;;;;;4.28;2.65;;;;;;;20.59;62.46;99762.13;1649930;85;21211;-84
2021/05/25 11:40:29;;;;;;;6.85;2.85;;;;;;;20.79;62.79;99760.48;1646501;84;21014;-83
2021/05/25 11:42:57;;;;;;;5.00;2.80;;;;;;;21.06;62.46;99753.29;1645065;86;21175;-82
2021/05/25 11:45:32;;;;;;;5.30;2.45;;;;;;;21.33;61.70;99752.77;1644761;85;21113;-83
2021/05/25 11:48:04;;;;;;;5.28;2.40;;;;;;;21.53;60.78;99751.60;1646431;86;21119;-85
2021/05/25 11:50:40;;;;;;;4.15;2.35;;;;;;;21.40;58.85;99740.58;1645762;85;21135;-85
2021/05/25 11:53:09;;;;;;;5.58;2.33;;;;;;;21.49;56.73;99740.52;1646830;85;21127;-85
2021/05/25 11:55:36;;;;;;;4.03;2.10;;;;;;;21.46;56.44;99743.12;1646842;85;21049;-83